sensor_id;sensor_type;location;lat;lon;timestamp;temperature;humidity
3360;DHT22;1693;49.602;11.046;2024-02-23T22:04:52;3.30;99.90
3360;DHT22;1693;49.602;11.046;2024-02-23T22:07:20;3.40;99.90
3360;DHT22;1693;49.602;11.046;2024-02-23T22:09:47;3.30;99.90
3360;DHT22;1693;49.602;11.046;2024-02-23T22:12:19;3.20;99.90
3360;DHT22;1693;49.602;11.046;2024-02-23T22:14:46;3.30;99.90
3360;DHT22;1693;49.602;11.046;2024-02-23T22:17:13;3.30;99.90
3360;DHT22;1693;49.602;11.046;2024-02-23T22:19:40;3.30;99.90
3360;DHT22;1693;49.602;11.046;2024-02-23T22:22:07;3.30;99.90
3360;DHT22;1693;49.602;11.046;2024-02-23T22:24:34;3.30;99.90
3360;DHT22;1693;49.602;11.046;2024-02-23T22:27:01;3.30;99.90
3360;DHT22;1693;49.602;11.046;2024-02-23T22:29:28;3.20;99.90
3360;DHT22;1693;49.602;11.046;2024-02-23T22:31:55;3.10;99.90
3360;DHT22;1693;49.602;11.046;2024-02-23T22:34:23;3.00;99.90
3360;DHT22;1693;49.602;11.046;2024-02-23T22:36:50;3.00;99.90
3360;DHT22;1693;49.602;11.046;2024-02-23T22:39:19;2.90;99.90
3360;DHT22;1693;49.602;11.046;2024-02-23T22:41:46;2.90;99.90
3360;DHT22;1693;49.602;11.046;2024-02-23T22:44:13;2.80;99.90
3360;DHT22;1693;49.602;11.046;2024-02-23T22:46:40;2.80;99.90
3360;DHT22;1693;49.602;11.046;2024-02-23T22:49:08;2.70;99.90
3360;DHT22;1693;49.602;11.046;2024-02-23T22:51:40;2.60;99.90
3360;DHT22;1693;49.602;11.046;2024-02-23T22:54:07;2.60;99.90
3360;DHT22;1693;49.602;11.046;2024-02-23T22:56:36;2.60;99.90
3360;DHT22;1693;49.602;11.046;2024-02-23T22:59:04;2.50;99.90
3360;DHT22;1693;49.602;11.046;2024-02-23T23:01:34;2.50;99.90
3360;DHT22;1693;49.602;11.046;2024-02-23T23:04:01;2.50;99.90
3360;DHT22;1693;49.602;11.046;2024-02-23T23:06:29;2.50;99.90
3360;DHT22;1693;49.602;11.046;2024-02-23T23:08:56;2.60;99.90
3360;DHT22;1693;49.602;11.046;2024-02-23T23:11:23;2.60;99.90
3360;DHT22;1693;49.602;11.046;2024-02-23T23:13:51;2.50;99.90
3360;DHT22;1693;49.602;11.046;2024-02-23T23:16:18;2.60;99.90
3360;DHT22;1693;49.602;11.046;2024-02-23T23:18:45;2.60;99.90
3360;DHT22;1693;49.602;11.046;2024-02-23T23:21:13;2.50;99.90
3360;DHT22;1693;49.602;11.046;2024-02-23T23:26:08;2.20;99.90
3360;DHT22;1693;49.602;11.046;2024-02-23T23:28:36;2.20;99.90
3360;DHT22;1693;49.602;11.046;2024-02-23T23:31:04;2.10;99.90
3360;DHT22;1693;49.602;11.046;2024-02-23T23:33:31;2.10;99.90
3360;DHT22;1693;49.602;11.046;2024-02-23T23:35:59;2.10;99.90
3360;DHT22;1693;49.602;11.046;2024-02-23T23:38:26;2.10;99.90
3360;DHT22;1693;49.602;11.046;2024-02-23T23:40:53;2.00;99.90
3360;DHT22;1693;49.602;11.046;2024-02-23T23:43:20;2.10;99.90
3360;DHT22;1693;49.602;11.046;2024-02-23T23:45:47;2.10;99.90
3360;DHT22;1693;49.602;11.046;2024-02-23T23:48:16;2.00;99.90
3360;DHT22;1693;49.602;11.046;2024-02-23T23:50:43;2.10;99.90
3360;DHT22;1693;49.602;11.046;2024-02-23T23:53:10;1.90;99.90
3360;DHT22;1693;49.602;11.046;2024-02-23T23:55:37;2.00;99.90
3360;DHT22;1693;49.602;11.046;2024-02-23T23:58:05;1.90;99.90
